地図

経路データ

SID SEASON NUMBER BASIN SUBBASIN NAME ISO_TIME NATURE LAT LON WMO_WIND WMO_PRES WMO_AGENCY TRACK_TYPE DIST2LAND LANDFALL IFLAG USA_AGENCY USA_ATCF_ID USA_LAT USA_LON USA_RECORD USA_STATUS USA_WIND USA_PRES USA_SSHS USA_R34_NE USA_R34_SE USA_R34_SW USA_R34_NW USA_R50_NE USA_R50_SE USA_R50_SW USA_R50_NW USA_R64_NE USA_R64_SE USA_R64_SW USA_R64_NW USA_POCI USA_ROCI USA_RMW USA_EYE TOKYO_LAT TOKYO_LON TOKYO_GRADE TOKYO_WIND TOKYO_PRES TOKYO_R50_DIR TOKYO_R50_LONG TOKYO_R50_SHORT TOKYO_R30_DIR TOKYO_R30_LONG TOKYO_R30_SHORT TOKYO_LAND CMA_LAT CMA_LON CMA_CAT CMA_WIND CMA_PRES HKO_LAT HKO_LON HKO_CAT HKO_WIND HKO_PRES NEWDELHI_LAT NEWDELHI_LON NEWDELHI_GRADE NEWDELHI_WIND NEWDELHI_PRES NEWDELHI_CI NEWDELHI_DP NEWDELHI_POCI REUNION_LAT REUNION_LON REUNION_TYPE REUNION_WIND REUNION_PRES REUNION_TNUM REUNION_CI REUNION_RMW REUNION_R34_NE REUNION_R34_SE REUNION_R34_SW REUNION_R34_NW REUNION_R50_NE REUNION_R50_SE REUNION_R50_SW REUNION_R50_NW REUNION_R64_NE REUNION_R64_SE REUNION_R64_SW REUNION_R64_NW BOM_LAT BOM_LON BOM_TYPE BOM_WIND BOM_PRES BOM_TNUM BOM_CI BOM_RMW BOM_R34_NE BOM_R34_SE BOM_R34_SW BOM_R34_NW BOM_R50_NE BOM_R50_SE BOM_R50_SW BOM_R50_NW BOM_R64_NE BOM_R64_SE BOM_R64_SW BOM_R64_NW BOM_ROCI BOM_POCI BOM_EYE BOM_POS_METHOD BOM_PRES_METHOD NADI_LAT NADI_LON NADI_CAT NADI_WIND NADI_PRES WELLINGTON_LAT WELLINGTON_LON WELLINGTON_WIND WELLINGTON_PRES DS824_LAT DS824_LON DS824_STAGE DS824_WIND DS824_PRES TD9636_LAT TD9636_LON TD9636_STAGE TD9636_WIND TD9636_PRES TD9635_LAT TD9635_LON TD9635_WIND TD9635_PRES TD9635_ROCI NEUMANN_LAT NEUMANN_LON NEUMANN_CLASS NEUMANN_WIND NEUMANN_PRES MLC_LAT MLC_LON MLC_CLASS MLC_WIND MLC_PRES USA_GUST BOM_GUST BOM_GUST_PER REUNION_GUST REUNION_GUST_PER USA_SEAHGT USA_SEARAD_NE USA_SEARAD_SE USA_SEARAD_SW USA_SEARAD_NW STORM_SPEED STORM_DIR
1926018S17056 1926 5 SI MM NOT_NAMED 1926-01-18 06:00:00 NR -17.4000 55.6000 reunion main 362 359 _____O________ -1 -17.4000 55.6000 99 9.90000 8 244
1926018S17056 1926 5 SI MM NOT_NAMED 1926-01-18 09:00:00 NR -17.5851 55.2093 main 369 369 _____P________ -1 -17.5851 55.2093 99 6 246
1926018S17056 1926 5 SI MM NOT_NAMED 1926-01-18 12:00:00 NR -17.6516 55.0164 main 370 354 _____P____O___ -1 -17.7688 54.8219 99 -17.3000 55.6000 2 7 244
1926018S17056 1926 5 SI MM NOT_NAMED 1926-01-18 15:00:00 NR -17.8946 54.5546 main 354 337 _____P____P___ -1 -17.9502 54.4419 99 -17.7834 54.7800 2 11 241
1926018S17056 1926 5 SI MM NOT_NAMED 1926-01-18 18:00:00 NR -18.1729 54.0444 main 341 335 _____P____P___ -1 -18.1287 54.0735 99 -18.2318 54.0055 2 11 240
1926018S17056 1926 5 SI MM NOT_NAMED 1926-01-18 21:00:00 NR -18.4588 53.5245 main 337 337 _____P____P___ -1 -18.3035 53.7209 99 -18.6142 53.3282 2 11 240
1926018S17056 1926 5 SI MM NOT_NAMED 1926-01-19 00:00:00 TS -18.7107 53.0615 main 345 344 _____P___OO___ -1 -18.4741 53.3883 99 -18.9000 52.8000 TC 35 -18.9000 52.8000 2 9 240
1926018S17056 1926 5 SI MM NOT_NAMED 1926-01-19 03:00:00 TS -18.8854 52.7337 main 356 338 _____P___PP___ -1 -18.6398 53.0799 99 -19.0025 52.6001 TC 35 -19.0723 52.4542 2 6 241
1926018S17056 1926 5 SI MM NOT_NAMED 1926-01-19 06:00:00 TS -19.0147 52.4901 reunion main 338 321 _____O___OP___ -1 -18.8000 52.8000 99 9.90000 -19.1000 52.4000 TC 35 -19.1655 52.2477 2 5 240
1926018S17056 1926 5 SI MM NOT_NAMED 1926-01-19 09:00:00 TS -19.1243 52.2895 main 321 305 _____P___PP___ -1 -18.9546 52.5512 99 -19.1925 52.2000 TC 35 -19.2260 52.1173 2 4 238
1926018S17056 1926 5 SI MM NOT_NAMED 1926-01-19 12:00:00 TS -19.2349 52.1100 main 305 294 _____P___OO___ -1 -19.1047 52.3301 99 -19.3000 52.0000 TC 35 -19.3000 52.0000 2 4 235
1926018S17056 1926 5 SI MM NOT_NAMED 1926-01-19 15:00:00 TS -19.3801 51.9092 main 294 277 _____P___PP___ -1 -19.2520 52.1315 99 -19.4350 51.8000 TC 35 -19.4534 51.7960 2 5 231
1926018S17056 1926 5 SI MM NOT_NAMED 1926-01-19 18:00:00 TS -19.5419 51.7144 main 277 263 _____P___OP___ -1 -19.3981 51.9506 99 -19.6000 51.6000 TC 35 -19.6275 51.5925 2 5 227
1926018S17056 1926 5 SI MM NOT_NAMED 1926-01-19 21:00:00 TS -19.7166 51.5224 main 263 251 _____P___PP___ -1 -19.5444 51.7820 99 -19.7925 51.3925 TC 35 -19.8128 51.3928 2 5 225
1926018S17056 1926 5 SI MM NOT_NAMED 1926-01-20 00:00:00 TS -19.8975 51.3403 main 251 246 _____P___OO___ -1 -19.6925 51.6208 99 -20.0000 51.2000 TC 35 -20.0000 51.2000 2 5 222
1926018S17056 1926 5 SI MM NOT_NAMED 1926-01-20 03:00:00 TS -20.0768 51.1765 main 250 230 _____P___PP___ -1 -19.8439 51.4619 99 -20.2074 51.0499 TC 35 -20.1790 51.0177 2 5 221
1926018S17056 1926 5 SI MM NOT_NAMED 1926-01-20 06:00:00 TS -20.2525 51.0141 reunion main 232 213 _____O___OP___ -1 -20.0000 51.3000 99 9.90000 -20.4000 50.9000 TC 35 -20.3574 50.8424 2 5 224
1926018S17056 1926 5 SI MM NOT_NAMED 1926-01-20 09:00:00 TS -20.4191 50.8283 main 213 199 _____P___PP___ -1 -20.1676 51.1067 99 -20.5575 50.7075 TC 35 -20.5321 50.6708 2 5 227
1926018S17056 1926 5 SI MM NOT_NAMED 1926-01-20 12:00:00 TS -20.5799 50.6376 main 199 193 _____P___OO___ -1 -20.3396 50.9128 99 -20.7000 50.5000 TC 35 -20.7000 50.5000 2 5 228
1926018S17056 1926 5 SI MM NOT_NAMED 1926-01-20 15:00:00 TS -20.7407 50.4442 main 184 179 _____P___PP___ -1 -20.5150 50.7193 99 -20.8500 50.2925 TC 35 -20.8572 50.3208 2 5 228
1926018S17056 1926 5 SI MM NOT_NAMED 1926-01-20 18:00:00 TS -20.9000 50.2566 main 184 169 _____P___OP___ -1 -20.6924 50.5275 99 -21.0000 50.1000 TC 35 -21.0075 50.1424 2 5 227
1926018S17056 1926 5 SI MM NOT_NAMED 1926-01-20 21:00:00 TS -21.0583 50.0829 main 174 157 _____P___PP___ -1 -20.8709 50.3384 99 -21.1500 49.9424 TC 35 -21.1540 49.9677 2 4 225
1926018S17056 1926 5 SI MM NOT_NAMED 1926-01-21 00:00:00 TS -21.2163 49.9178 main 157 148 _____P___OO___ -1 -21.0490 50.1534 99 -21.3000 49.8000 TC 35 -21.3000 49.8000 2 4 224
1926018S17056 1926 5 SI MM NOT_NAMED 1926-01-21 03:00:00 TS -21.3725 49.7580 main 151 134 _____P___PP___ -1 -21.2258 49.9735 99 -21.4500 49.6500 TC 35 -21.4417 49.6507 2 4 223
1926018S17056 1926 5 SI MM NOT_NAMED 1926-01-21 06:00:00 TS -21.5283 49.6024 reunion main 134 126 _____O___OP___ -1 -21.4000 49.8000 99 9.90000 -21.6000 49.5000 TC 35 -21.5848 49.5071 2 4 224
1926018S17056 1926 5 SI MM NOT_NAMED 1926-01-21 09:00:00 TS -21.6747 49.4453 main 118 112 _____P___PP___ -1 -21.5461 49.6185 99 -21.7425 49.3574 TC 35 -21.7355 49.3600 2 4 225
1926018S17056 1926 5 SI MM NOT_NAMED 1926-01-21 12:00:00 TS -21.8292 49.2805 main 112 95 _____P___OO___ -1 -21.6875 49.4414 99 -21.9000 49.2000 TC 35 -21.9000 49.2000 2 5 225
1926018S17056 1926 5 SI MM NOT_NAMED 1926-01-21 15:00:00 TS -21.9997 49.0936 main 95 79 _____P___PP___ -1 -21.8290 49.2710 99 -22.0925 49.0075 TC 35 -22.0776 49.0023 2 5 225
1926018S17056 1926 5 SI MM NOT_NAMED 1926-01-21 18:00:00 TS -22.1817 48.9007 main 84 70 _____P___OP___ -1 -21.9751 49.1095 99 -22.3000 48.8000 TC 35 -22.2702 48.7926 2 5 224
1926018S17056 1926 5 SI MM NOT_NAMED 1926-01-21 21:00:00 TS -22.3669 48.7128 main 75 65 _____P___PP___ -1 -22.1306 48.9594 99 -22.4925 48.5925 TC 35 -22.4776 48.5866 2 5 221
1926018S17056 1926 5 SI MM NOT_NAMED 1926-01-22 00:00:00 TS -22.5667 48.5410 main 62 55 _____P___OO___ -1 -22.3001 48.8229 99 -22.7000 48.4000 TC 35 -22.7000 48.4000 2 5 216
1926018S17056 1926 5 SI MM NOT_NAMED 1926-01-22 03:00:00 TS -22.7807 48.3848 main 61 51 _____P___PP___ -1 -22.4883 48.7023 99 -22.9425 48.2350 TC 35 -22.9112 48.2172 2 5 211
1926018S17056 1926 5 SI MM NOT_NAMED 1926-01-22 06:00:00 TS -23.0133 48.2535 reunion main 52 40 _____O___OP___ -1 -22.7000 48.6000 99 9.90000 -23.2000 48.1000 TC 35 -23.1400 48.0606 2 5 205
1926018S17056 1926 5 SI MM NOT_NAMED 1926-01-22 09:00:00 TS -23.2666 48.1383 main 40 40 _____P___PP___ -1 -22.9735 48.4961 99 -23.4275 47.9701 TC 35 -23.3987 47.9487 2 6 197
1926018S17056 1926 5 SI MM NOT_NAMED 1926-01-22 12:00:00 TS -23.5578 48.0694 main 46 46 _____P___OO___ -1 -23.2733 48.4081 99 -23.7000 47.9000 TC 35 -23.7000 47.9000 2 6 186
1926018S17056 1926 5 SI MM NOT_NAMED 1926-01-22 15:00:00 TS -23.9065 48.0590 main 60 60 _____P___PP___ -1 -23.5901 48.3375 99 -24.0775 47.9125 TC 35 -24.0520 47.9270 2 7 176
1926018S17056 1926 5 SI MM NOT_NAMED 1926-01-22 18:00:00 TS -24.2493 48.1192 main 64 64 _____P___OP___ -1 -23.9144 48.2859 99 -24.5000 48.0000 TC 35 -24.4452 48.0160 2 7 169
1926018S17056 1926 5 SI MM NOT_NAMED 1926-01-22 21:00:00 TS -24.5618 48.1985 main 91 91 _____P___PP___ -1 -24.2369 48.2547 99 -24.9075 48.1373 TC 35 -24.8658 48.1472 2 6 167
1926018S17056 1926 5 SI MM NOT_NAMED 1926-01-23 00:00:00 TS -24.7989 48.2638 main 106 106 _____P___OO___ -1 -24.5483 48.2456 99 -25.3000 48.3000 TC 35 -25.3000 48.3000 2 3 169
1926018S17056 1926 5 SI MM NOT_NAMED 1926-01-23 03:00:00 NR -24.8391 48.2602 main 106 106 _____P________ -1 -24.8391 48.2602 99 TC 2 3 172
1926018S17056 1926 5 SI MM NOT_NAMED 1926-01-23 06:00:00 NR -25.1000 48.3000 reunion main 119 119 _____O________ -1 -25.1000 48.3000 99 9.90000 2 5 169
1926018S17056 1926 5 SI MM NOT_NAMED 1926-01-23 09:00:00 NR -25.3239 48.3658 main 134 134 _____P________ -1 -25.3239 48.3658 99 2 4 161
1926018S17056 1926 5 SI MM NOT_NAMED 1926-01-23 12:00:00 NR -25.5133 48.4551 main 151 151 _____P________ -1 -25.5133 48.4551 99 4 153
1926018S17056 1926 5 SI MM NOT_NAMED 1926-01-23 15:00:00 NR -25.6732 48.5648 main 169 169 _____P________ -1 -25.6732 48.5648 99 4 144
1926018S17056 1926 5 SI MM NOT_NAMED 1926-01-23 18:00:00 NR -25.8084 48.6913 main 183 183 _____P________ -1 -25.8084 48.6913 99 3 136
1926018S17056 1926 5 SI MM NOT_NAMED 1926-01-23 21:00:00 NR -25.9237 48.8314 main 197 197 _____P________ -1 -25.9237 48.8314 99 3 129
1926018S17056 1926 5 SI MM NOT_NAMED 1926-01-24 00:00:00 NR -26.0242 48.9818 main 220 220 _____P________ -1 -26.0242 48.9818 99 3 125
1926018S17056 1926 5 SI MM NOT_NAMED 1926-01-24 03:00:00 NR -26.1147 49.1391 main 235 235 _____P________ -1 -26.1147 49.1391 99 3 122
1926018S17056 1926 5 SI MM NOT_NAMED 1926-01-24 06:00:00 NR -26.2000 49.3000 reunion main 257 _____O________ -1 -26.2000 49.3000 99 9.90000 3 121

IBTrACS Databaseについて

本データベースは、米国NOAAが公開する1842年以降の世界の熱帯低気圧のベストトラックデータアーカイブInternational Best Track Archive for Climate Stewardship (IBTrACS)を、ウェブで閲覧しやすい形式に変換したものです。

最終更新日:2021-11-26